createdAt,value
2018-03-21T00:02:01.040Z,0.73
2018-03-21T00:04:28.550Z,0.74
2018-03-21T00:06:56.055Z,0.68
2018-03-21T00:09:23.588Z,0.68
2018-03-21T00:11:51.164Z,0.65
2018-03-21T00:14:18.686Z,0.65
2018-03-21T00:16:46.305Z,0.63
2018-03-21T00:19:13.796Z,0.62
2018-03-21T00:21:41.323Z,0.62
2018-03-21T00:24:08.877Z,0.60
2018-03-21T00:26:36.420Z,0.59
2018-03-21T00:29:03.964Z,0.57
2018-03-21T00:31:31.769Z,0.55
2018-03-21T00:33:59.293Z,0.55
2018-03-21T00:36:26.835Z,0.53
2018-03-21T00:38:54.381Z,0.52
2018-03-21T00:41:21.898Z,0.51
2018-03-21T00:43:49.430Z,0.47
2018-03-21T00:46:16.989Z,0.48
2018-03-21T00:48:44.571Z,0.46
2018-03-21T00:51:12.358Z,0.42
2018-03-21T00:53:39.905Z,0.37
2018-03-21T00:56:07.603Z,0.36
2018-03-21T00:58:35.123Z,0.37
2018-03-21T01:01:02.649Z,0.37
2018-03-21T01:03:30.151Z,0.35
2018-03-21T01:05:57.644Z,0.30
2018-03-21T01:08:25.152Z,0.31
2018-03-21T01:10:52.664Z,0.31
2018-03-21T01:13:20.188Z,0.27
2018-03-21T01:15:47.786Z,0.23
2018-03-21T01:18:15.353Z,0.22
2018-03-21T01:20:42.865Z,0.20
2018-03-21T01:23:10.441Z,0.19
2018-03-21T01:25:37.970Z,0.19
2018-03-21T01:28:05.739Z,0.12
2018-03-21T01:30:33.283Z,0.12
2018-03-21T01:33:00.796Z,0.12
2018-03-21T01:35:28.307Z,0.09
2018-03-21T01:37:58.316Z,0.06
2018-03-21T01:40:26.001Z,-0.01
2018-03-21T01:42:53.648Z,-0.06
2018-03-21T01:45:21.226Z,-0.09
2018-03-21T01:47:48.734Z,-0.08
2018-03-21T01:50:16.244Z,-0.10
2018-03-21T01:52:43.795Z,-0.11
2018-03-21T01:55:11.319Z,-0.12
2018-03-21T01:57:38.833Z,-0.15
2018-03-21T02:00:06.386Z,-0.16
2018-03-21T02:02:33.920Z,-0.17
2018-03-21T02:05:01.445Z,-0.19
2018-03-21T02:07:29.722Z,-0.20
2018-03-21T02:09:57.247Z,-0.25
2018-03-21T02:12:25.045Z,-0.29
2018-03-21T02:14:52.619Z,-0.32
2018-03-21T02:17:20.149Z,-0.31
2018-03-21T02:19:47.676Z,-0.32
2018-03-21T02:22:15.256Z,-0.34
2018-03-21T02:24:42.913Z,-0.35
2018-03-21T02:27:10.418Z,-0.33
2018-03-21T02:29:38.084Z,-0.33
2018-03-21T02:32:05.594Z,-0.36
2018-03-21T02:34:33.108Z,-0.36
2018-03-21T02:37:00.762Z,-0.38
2018-03-21T02:39:28.630Z,-0.41
2018-03-21T02:41:56.187Z,-0.44
2018-03-21T02:44:23.722Z,-0.45
2018-03-21T02:46:51.613Z,-0.44
2018-03-21T02:49:19.145Z,-0.45
2018-03-21T02:51:46.712Z,-0.44
2018-03-21T02:54:14.816Z,-0.44
2018-03-21T02:56:42.439Z,-0.46
2018-03-21T02:59:10.564Z,-0.48
2018-03-21T03:01:38.113Z,-0.47
2018-03-21T03:04:05.637Z,-0.48
2018-03-21T03:06:33.205Z,-0.48
2018-03-21T03:09:00.724Z,-0.50
2018-03-21T03:11:28.241Z,-0.49
2018-03-21T03:13:55.802Z,-0.48
2018-03-21T03:16:23.970Z,-0.48
2018-03-21T03:18:51.470Z,-0.51
2018-03-21T03:21:19.005Z,-0.60
2018-03-21T03:23:46.588Z,-0.58
2018-03-21T03:26:14.127Z,-0.61
2018-03-21T03:28:42.388Z,-0.59
2018-03-21T03:31:09.924Z,-0.59
2018-03-21T03:33:37.447Z,-0.55
2018-03-21T03:36:05.297Z,-0.55
2018-03-21T03:38:32.844Z,-0.57
2018-03-21T03:41:00.390Z,-0.61
2018-03-21T03:43:27.952Z,-0.63
2018-03-21T03:45:55.610Z,-0.66
2018-03-21T03:48:23.203Z,-0.64
2018-03-21T03:50:50.754Z,-0.64
2018-03-21T03:53:18.291Z,-0.64
2018-03-21T03:55:45.820Z,-0.66
2018-03-21T03:58:13.386Z,-0.68
2018-03-21T04:00:40.911Z,-0.67
2018-03-21T04:03:08.431Z,-0.68
2018-03-21T04:05:35.982Z,-0.70
2018-03-21T04:08:03.517Z,-0.73
2018-03-21T04:10:31.022Z,-0.72
2018-03-21T04:12:58.587Z,-0.73
2018-03-21T04:15:26.095Z,-0.86
2018-03-21T04:17:53.656Z,-0.93
2018-03-21T04:20:21.264Z,-0.92
2018-03-21T04:22:48.800Z,-0.86
2018-03-21T04:25:16.311Z,-0.87
2018-03-21T04:27:43.864Z,-0.88
2018-03-21T04:30:11.385Z,-0.87
2018-03-21T04:32:38.909Z,-0.84
2018-03-21T04:35:06.527Z,-0.88
2018-03-21T04:37:34.031Z,-0.96
2018-03-21T04:40:01.538Z,-0.95
2018-03-21T04:42:29.096Z,-0.99
2018-03-21T04:44:56.634Z,-0.96
2018-03-21T04:47:24.155Z,-1.00
2018-03-21T04:49:51.730Z,-0.97
2018-03-21T04:52:19.230Z,-1.09
2018-03-21T04:54:46.815Z,-1.08
2018-03-21T04:57:14.677Z,-1.09
2018-03-21T04:59:42.228Z,-1.11
2018-03-21T05:02:09.998Z,-1.17
2018-03-21T05:04:37.548Z,-1.15
2018-03-21T05:07:05.081Z,-1.23
2018-03-21T05:09:32.609Z,-1.20
2018-03-21T05:12:00.166Z,-1.22
2018-03-21T05:14:27.683Z,-1.20
2018-03-21T05:16:55.961Z,-1.20
2018-03-21T05:19:23.499Z,-1.17
2018-03-21T05:21:51.027Z,-1.15
2018-03-21T05:24:18.674Z,-1.11
2018-03-21T05:26:46.555Z,-1.15
2018-03-21T05:29:14.142Z,-1.18
2018-03-21T05:31:41.707Z,-1.18
2018-03-21T05:34:09.251Z,-1.12
2018-03-21T05:36:36.777Z,-1.11
2018-03-21T05:39:04.319Z,-1.10
2018-03-21T05:41:31.912Z,-1.13
2018-03-21T05:43:59.760Z,-1.11
2018-03-21T05:46:27.287Z,-1.12
2018-03-21T05:48:54.829Z,-1.11
2018-03-21T05:51:22.395Z,-1.06
2018-03-21T05:53:49.913Z,-1.08
2018-03-21T05:56:17.464Z,-1.07
2018-03-21T05:58:44.980Z,-1.06
2018-03-21T06:01:12.513Z,-1.02
2018-03-21T06:03:40.156Z,-0.97
2018-03-21T06:06:07.710Z,-0.97
2018-03-21T06:08:35.273Z,-0.91
2018-03-21T06:11:02.807Z,-0.94
2018-03-21T06:13:30.592Z,-0.91
2018-03-21T06:15:58.850Z,-0.82
2018-03-21T06:18:26.741Z,-0.68
2018-03-21T06:20:54.510Z,-0.51
2018-03-21T06:23:22.028Z,-0.28
2018-03-21T06:25:49.587Z,0.01
2018-03-21T06:28:17.114Z,0.27
2018-03-21T06:30:44.635Z,0.42
2018-03-21T06:33:12.186Z,0.69
2018-03-21T06:35:39.688Z,0.86
2018-03-21T06:38:07.175Z,1.08
2018-03-21T06:40:34.714Z,1.31
2018-03-21T06:43:02.547Z,1.38
2018-03-21T06:45:30.072Z,1.54
2018-03-21T06:47:57.697Z,1.60
2018-03-21T06:50:25.391Z,1.68
2018-03-21T06:52:52.938Z,1.78
2018-03-21T06:55:20.492Z,1.93
2018-03-21T06:57:48.012Z,2.19
2018-03-21T07:00:15.676Z,2.44
2018-03-21T07:02:43.754Z,2.69
2018-03-21T07:05:11.273Z,3.12
2018-03-21T07:07:39.095Z,3.40
2018-03-21T07:10:06.687Z,3.87
2018-03-21T07:12:34.182Z,4.35
2018-03-21T07:15:13.463Z,4.94
2018-03-21T07:17:41.300Z,5.28
2018-03-21T07:20:08.848Z,5.76
2018-03-21T07:22:36.365Z,6.26
2018-03-21T07:25:04.209Z,6.67
2018-03-21T07:27:32.112Z,6.70
2018-03-21T07:29:59.657Z,6.89
2018-03-21T07:32:27.260Z,6.95
2018-03-21T07:34:54.807Z,7.05
2018-03-21T07:37:22.384Z,7.11
2018-03-21T07:39:49.912Z,6.82
2018-03-21T07:42:17.426Z,6.82
2018-03-21T07:44:44.963Z,6.97
2018-03-21T07:47:12.789Z,6.89
2018-03-21T07:49:40.321Z,6.91
2018-03-21T07:52:07.895Z,6.85
2018-03-21T07:54:35.751Z,6.48
2018-03-21T07:57:03.259Z,6.46
2018-03-21T07:59:31.001Z,6.36
2018-03-21T08:01:58.532Z,6.49
2018-03-21T08:04:26.078Z,6.70
2018-03-21T08:06:53.612Z,6.95
2018-03-21T08:09:21.197Z,7.27
2018-03-21T08:11:48.726Z,7.47
2018-03-21T08:14:16.295Z,7.39
2018-03-21T08:16:43.978Z,7.73
2018-03-21T08:19:11.539Z,8.30
2018-03-21T08:21:39.321Z,7.68
2018-03-21T08:24:07.784Z,8.15
2018-03-21T08:26:35.516Z,8.55
2018-03-21T08:29:03.887Z,8.31
2018-03-21T08:31:31.404Z,8.14
2018-03-21T08:33:59.471Z,8.67
2018-03-21T08:36:27.056Z,8.63
2018-03-21T08:38:54.600Z,8.67
2018-03-21T08:41:22.170Z,8.80
2018-03-21T08:43:49.770Z,8.85
2018-03-21T08:46:17.334Z,8.87
2018-03-21T08:48:46.280Z,9.02
2018-03-21T08:51:13.856Z,9.01
2018-03-21T08:53:41.485Z,9.03
2018-03-21T08:56:09.267Z,9.49
2018-03-21T08:58:36.862Z,9.94
2018-03-21T09:01:04.414Z,9.95
2018-03-21T09:03:31.960Z,10.44
2018-03-21T09:05:59.525Z,10.94
2018-03-21T09:08:27.081Z,11.45
2018-03-21T09:10:54.616Z,11.76
2018-03-21T09:13:22.653Z,10.68
2018-03-21T09:15:51.496Z,10.61
2018-03-21T09:18:19.132Z,10.81
2018-03-21T09:20:46.683Z,10.62
2018-03-21T09:23:14.280Z,10.35
2018-03-21T09:25:41.808Z,10.50
2018-03-21T09:28:09.338Z,10.82
2018-03-21T09:30:36.852Z,11.21
2018-03-21T09:33:04.385Z,11.17
2018-03-21T09:35:32.043Z,10.03
2018-03-21T09:37:59.954Z,10.31
2018-03-21T09:40:27.473Z,10.88
2018-03-21T09:42:55.226Z,10.70
2018-03-21T09:45:22.734Z,11.07
2018-03-21T09:47:50.245Z,11.14
2018-03-21T09:50:17.775Z,10.61
2018-03-21T09:52:45.299Z,10.05
2018-03-21T09:55:13.181Z,9.65
2018-03-21T09:57:40.711Z,9.33
2018-03-21T10:00:08.220Z,8.30
2018-03-21T10:02:35.758Z,8.26
2018-03-21T10:05:03.628Z,8.35
2018-03-21T10:07:31.383Z,8.50
2018-03-21T10:09:59.882Z,8.13
2018-03-21T10:12:27.509Z,8.26
2018-03-21T10:14:55.042Z,8.50
2018-03-21T10:17:22.568Z,8.22
2018-03-21T10:19:50.161Z,7.79
2018-03-21T10:22:17.689Z,7.52
2018-03-21T10:24:45.252Z,8.13
2018-03-21T10:27:12.854Z,8.36
2018-03-21T10:29:40.373Z,8.60
2018-03-21T10:32:07.874Z,8.81
2018-03-21T10:34:35.425Z,9.13
2018-03-21T10:37:02.959Z,9.79
2018-03-21T10:39:30.944Z,10.25
2018-03-21T10:41:58.506Z,9.37
2018-03-21T10:44:26.137Z,10.96
2018-03-21T10:46:53.682Z,12.00
2018-03-21T10:49:21.248Z,12.41
2018-03-21T10:51:48.763Z,12.48
2018-03-21T10:54:16.276Z,12.93
2018-03-21T10:56:43.849Z,13.17
2018-03-21T10:59:11.764Z,13.86
2018-03-21T11:01:41.930Z,14.05
2018-03-21T11:04:18.276Z,14.53
2018-03-21T11:06:45.835Z,14.75
2018-03-21T11:09:13.388Z,14.98
2018-03-21T11:11:40.976Z,14.99
2018-03-21T11:14:08.470Z,14.96
2018-03-21T11:16:36.308Z,14.52
2018-03-21T11:19:03.883Z,14.41
2018-03-21T11:21:32.104Z,13.74
2018-03-21T11:23:59.617Z,13.29
2018-03-21T11:26:27.194Z,12.71
2018-03-21T11:28:54.749Z,13.08
2018-03-21T11:31:22.227Z,13.59
2018-03-21T11:33:49.754Z,13.32
2018-03-21T11:36:17.292Z,14.26
2018-03-21T11:38:44.813Z,14.27
2018-03-21T11:41:12.365Z,14.29
2018-03-21T11:43:39.885Z,13.86
2018-03-21T11:46:07.622Z,13.16
2018-03-21T11:48:35.317Z,13.18
2018-03-21T11:51:02.881Z,15.26
2018-03-21T11:53:30.490Z,17.65
2018-03-21T11:55:58.105Z,18.55
2018-03-21T11:58:25.625Z,18.33
2018-03-21T12:00:53.190Z,18.78
2018-03-21T12:03:20.730Z,18.34
2018-03-21T12:05:48.231Z,16.36
2018-03-21T12:08:15.845Z,15.64
2018-03-21T12:10:43.770Z,16.08
2018-03-21T12:13:11.469Z,17.52
2018-03-21T12:15:39.090Z,19.86
2018-03-21T12:18:06.877Z,19.74
2018-03-21T12:20:34.487Z,16.91
2018-03-21T12:23:03.034Z,16.33
2018-03-21T12:25:30.654Z,16.64
2018-03-21T12:27:58.174Z,17.97
2018-03-21T12:30:25.755Z,18.85
2018-03-21T12:32:53.330Z,18.61
2018-03-21T12:35:20.959Z,18.77
2018-03-21T12:37:48.546Z,18.90
2018-03-21T12:40:16.246Z,18.95
2018-03-21T12:42:43.824Z,19.67
2018-03-21T12:45:11.359Z,19.31
2018-03-21T12:47:38.901Z,16.47
2018-03-21T12:50:06.420Z,15.63
2018-03-21T12:52:33.968Z,14.46
2018-03-21T12:55:01.498Z,13.55
2018-03-21T12:57:29.063Z,13.09
2018-03-21T12:59:56.588Z,13.20
2018-03-21T13:02:24.184Z,13.41
2018-03-21T13:04:52.318Z,13.36
2018-03-21T13:07:19.835Z,13.95
2018-03-21T13:09:47.445Z,13.84
2018-03-21T13:12:15.248Z,14.62
2018-03-21T13:14:42.745Z,14.38
2018-03-21T13:17:10.293Z,15.14
2018-03-21T13:19:38.114Z,16.22
2018-03-21T13:22:05.630Z,16.71
2018-03-21T13:24:33.218Z,15.26
2018-03-21T13:27:00.813Z,14.16
2018-03-21T13:29:28.369Z,13.64
2018-03-21T13:31:56.754Z,15.37
2018-03-21T13:34:24.610Z,16.04
2018-03-21T13:36:52.145Z,16.89
2018-03-21T13:39:19.941Z,16.62
2018-03-21T13:41:47.562Z,15.46
2018-03-21T13:44:15.730Z,13.95
2018-03-21T13:46:43.394Z,14.31
2018-03-21T13:49:11.218Z,15.50
2018-03-21T13:51:39.059Z,16.97
2018-03-21T13:54:06.606Z,16.62
2018-03-21T13:56:34.133Z,16.71
2018-03-21T13:59:01.959Z,17.02
2018-03-21T14:01:29.488Z,17.40
2018-03-21T14:03:57.016Z,16.89
2018-03-21T14:06:24.629Z,13.85
2018-03-21T14:08:52.171Z,12.54
2018-03-21T14:11:19.756Z,13.02
2018-03-21T14:13:47.284Z,13.54
2018-03-21T14:16:14.890Z,12.41
2018-03-21T14:18:42.501Z,12.53
2018-03-21T14:21:10.019Z,12.67
2018-03-21T14:23:37.579Z,12.61
2018-03-21T14:26:05.090Z,13.51
2018-03-21T14:28:32.603Z,14.37
2018-03-21T14:31:00.236Z,14.08
2018-03-21T14:33:27.746Z,13.39
2018-03-21T14:35:55.288Z,11.97
2018-03-21T14:38:22.832Z,10.65
2018-03-21T14:40:50.357Z,10.09
2018-03-21T14:43:18.088Z,10.20
2018-03-21T14:45:45.748Z,10.18
2018-03-21T14:48:13.325Z,9.52
2018-03-21T14:50:40.835Z,9.24
2018-03-21T14:53:08.423Z,9.26
2018-03-21T14:55:35.904Z,8.93
2018-03-21T14:58:03.504Z,8.33
2018-03-21T15:00:31.092Z,8.71
2018-03-21T15:02:58.666Z,8.95
2018-03-21T15:05:26.196Z,9.13
2018-03-21T15:07:53.732Z,9.67
2018-03-21T15:10:21.269Z,9.61
2018-03-21T15:12:48.789Z,9.71
2018-03-21T15:15:16.354Z,9.84
2018-03-21T15:17:43.865Z,9.47
2018-03-21T15:20:11.363Z,8.64
2018-03-21T15:22:38.890Z,8.11
2018-03-21T15:25:06.399Z,7.92
2018-03-21T15:27:33.941Z,7.82
2018-03-21T15:30:01.816Z,7.99
2018-03-21T15:32:29.573Z,7.86
2018-03-21T15:34:57.068Z,7.86
2018-03-21T15:37:24.617Z,7.85
2018-03-21T15:39:52.456Z,8.06
2018-03-21T15:42:19.958Z,7.96
2018-03-21T15:44:47.510Z,7.99
2018-03-21T15:47:15.361Z,7.68
2018-03-21T15:49:42.863Z,7.31
2018-03-21T15:52:10.430Z,7.15
2018-03-21T15:54:37.946Z,7.23
2018-03-21T15:57:05.460Z,7.10
2018-03-21T15:59:33.015Z,7.10
2018-03-21T16:02:00.531Z,7.06
2018-03-21T16:04:28.069Z,6.85
2018-03-21T16:06:55.697Z,6.96
2018-03-21T16:09:23.210Z,6.88
2018-03-21T16:11:51.724Z,6.84
2018-03-21T16:14:19.294Z,6.74
2018-03-21T16:16:46.808Z,6.59
2018-03-21T16:19:14.333Z,6.68
2018-03-21T16:21:41.859Z,6.70
2018-03-21T16:24:09.529Z,6.53
2018-03-21T16:26:37.050Z,6.65
2018-03-21T16:29:04.610Z,6.65
2018-03-21T16:31:32.112Z,6.64
2018-03-21T16:33:59.922Z,6.57
2018-03-21T16:36:27.495Z,6.64
2018-03-21T16:38:55.045Z,6.66
2018-03-21T16:41:22.585Z,6.47
2018-03-21T16:43:50.144Z,6.56
2018-03-21T16:46:17.938Z,6.42
2018-03-21T16:48:45.495Z,6.35
2018-03-21T16:51:13.131Z,6.27
2018-03-21T16:53:40.650Z,6.33
2018-03-21T16:56:08.405Z,6.31
2018-03-21T16:58:36.248Z,6.26
2018-03-21T17:01:03.774Z,6.24
2018-03-21T17:03:31.296Z,6.23
2018-03-21T17:05:58.933Z,6.12
2018-03-21T17:08:26.460Z,6.03
2018-03-21T17:10:53.991Z,5.91
2018-03-21T17:13:21.548Z,6.01
2018-03-21T17:15:49.049Z,6.03
2018-03-21T17:18:16.600Z,5.80
2018-03-21T17:20:44.148Z,5.84
2018-03-21T17:23:12.621Z,5.86
2018-03-21T17:25:40.204Z,5.78
2018-03-21T17:28:07.800Z,5.68
2018-03-21T17:30:35.663Z,5.60
2018-03-21T17:33:04.472Z,5.53
2018-03-21T17:35:32.082Z,5.53
2018-03-21T17:37:59.640Z,5.53
2018-03-21T17:40:27.156Z,5.54
2018-03-21T17:42:54.868Z,5.54
2018-03-21T17:45:22.415Z,5.49
2018-03-21T17:47:49.931Z,5.44
2018-03-21T17:50:17.467Z,5.48
2018-03-21T17:52:45.042Z,5.46
2018-03-21T17:55:12.865Z,5.41
2018-03-21T17:57:41.993Z,5.27
2018-03-21T18:00:09.518Z,5.10
2018-03-21T18:02:37.048Z,5.20
2018-03-21T18:05:04.598Z,5.23
2018-03-21T18:07:32.097Z,5.30
2018-03-21T18:09:59.927Z,5.27
2018-03-21T18:12:27.489Z,5.23
2018-03-21T18:14:55.057Z,5.09
2018-03-21T18:17:22.907Z,5.04
2018-03-21T18:19:50.436Z,5.04
2018-03-21T18:22:18.016Z,4.89
2018-03-21T18:24:45.535Z,4.96
2018-03-21T18:27:13.064Z,4.90
2018-03-21T18:29:40.589Z,4.73
2018-03-21T18:32:08.186Z,4.79
2018-03-21T18:34:35.689Z,4.60
2018-03-21T18:37:03.493Z,4.81
2018-03-21T18:39:31.453Z,4.75
2018-03-21T18:41:59.032Z,4.68
2018-03-21T18:44:26.649Z,4.74
2018-03-21T18:46:54.509Z,4.66
2018-03-21T18:49:22.426Z,4.42
2018-03-21T18:51:49.978Z,4.42
2018-03-21T18:54:17.544Z,4.51
2018-03-21T18:56:45.094Z,4.55
2018-03-21T18:59:12.638Z,4.44
2018-03-21T19:01:40.145Z,4.33
2018-03-21T19:04:07.709Z,4.46
2018-03-21T19:06:35.292Z,4.51
2018-03-21T19:09:03.229Z,4.48
2018-03-21T19:11:30.789Z,4.49
2018-03-21T19:13:58.639Z,4.51
2018-03-21T19:16:26.173Z,4.48
2018-03-21T19:18:53.702Z,4.51
2018-03-21T19:21:21.236Z,4.59
2018-03-21T19:23:48.833Z,4.54
2018-03-21T19:26:16.451Z,4.59
2018-03-21T19:28:44.315Z,4.52
2018-03-21T19:31:11.837Z,4.51
2018-03-21T19:33:40.192Z,4.62
2018-03-21T19:36:08.019Z,4.65
2018-03-21T19:38:35.898Z,4.69
2018-03-21T19:41:03.489Z,4.47
2018-03-21T19:43:31.047Z,4.47
2018-03-21T19:45:58.778Z,4.45
2018-03-21T19:48:26.334Z,4.45
2018-03-21T19:50:54.187Z,4.47
2018-03-21T19:53:21.785Z,4.53
2018-03-21T19:55:49.353Z,4.54
2018-03-21T19:58:16.887Z,4.54
2018-03-21T20:00:44.686Z,4.59
2018-03-21T20:03:12.241Z,4.61
2018-03-21T20:05:39.826Z,4.56
2018-03-21T20:08:07.638Z,4.46
2018-03-21T20:10:35.206Z,4.52
2018-03-21T20:13:02.976Z,4.52
2018-03-21T20:15:30.859Z,4.55
2018-03-21T20:17:58.419Z,4.48
2018-03-21T20:20:26.052Z,4.44
2018-03-21T20:22:53.707Z,4.50
2018-03-21T20:25:21.282Z,4.35
2018-03-21T20:27:49.166Z,4.37
2018-03-21T20:30:16.686Z,4.40
2018-03-21T20:32:44.222Z,4.41
2018-03-21T20:35:11.863Z,4.50
2018-03-21T20:37:39.448Z,4.35
2018-03-21T20:40:06.978Z,4.41
2018-03-21T20:42:34.532Z,4.38
2018-03-21T20:45:02.089Z,4.44
2018-03-21T20:47:30.331Z,4.29
2018-03-21T20:49:57.885Z,4.20
2018-03-21T20:52:26.430Z,4.18
2018-03-21T20:54:53.960Z,4.25
2018-03-21T20:57:21.631Z,4.24
2018-03-21T20:59:49.190Z,4.26
2018-03-21T21:02:16.923Z,4.30
2018-03-21T21:04:44.683Z,4.33
2018-03-21T21:07:12.268Z,4.27
2018-03-21T21:09:39.854Z,4.15
2018-03-21T21:12:08.138Z,4.16
2018-03-21T21:14:35.718Z,4.18
2018-03-21T21:17:03.260Z,4.22
2018-03-21T21:19:30.798Z,4.21
2018-03-21T21:21:58.322Z,4.21
2018-03-21T21:24:25.888Z,4.16
2018-03-21T21:26:53.534Z,4.12
2018-03-21T21:29:21.365Z,4.20
2018-03-21T21:31:48.944Z,4.18
2018-03-21T21:34:16.769Z,4.10
2018-03-21T21:36:44.534Z,4.10
2018-03-21T21:39:12.160Z,3.96
2018-03-21T21:41:39.717Z,3.98
2018-03-21T21:44:08.120Z,3.90
2018-03-21T21:46:35.688Z,3.94
2018-03-21T21:49:03.399Z,3.86
2018-03-21T21:51:30.973Z,3.97
2018-03-21T21:53:58.540Z,3.96
2018-03-21T21:56:26.087Z,4.04
2018-03-21T21:58:53.690Z,3.99
2018-03-21T22:01:21.358Z,3.93
2018-03-21T22:03:49.603Z,3.86
2018-03-21T22:06:17.433Z,3.78
2018-03-21T22:08:45.128Z,3.69
2018-03-21T22:11:12.870Z,3.75
2018-03-21T22:13:40.738Z,3.83
2018-03-21T22:16:08.497Z,3.78
2018-03-21T22:18:36.236Z,3.80
2018-03-21T22:21:04.633Z,3.81
2018-03-21T22:23:32.160Z,3.84
2018-03-21T22:25:59.910Z,3.79
2018-03-21T22:28:28.243Z,3.83
2018-03-21T22:30:55.826Z,3.66
2018-03-21T22:33:23.344Z,3.85
2018-03-21T22:35:50.951Z,3.82
2018-03-21T22:38:18.492Z,3.83
2018-03-21T22:40:46.042Z,3.78
2018-03-21T22:43:13.587Z,3.68
2018-03-21T22:45:41.355Z,3.74
2018-03-21T22:48:08.878Z,3.79
2018-03-21T22:50:36.380Z,3.83
2018-03-21T22:53:04.239Z,3.82
2018-03-21T22:55:31.821Z,3.82
2018-03-21T22:57:59.329Z,3.89
2018-03-21T23:00:26.881Z,3.76
2018-03-21T23:02:54.698Z,3.58
2018-03-21T23:05:22.211Z,3.65
2018-03-21T23:07:49.774Z,3.58
2018-03-21T23:10:17.281Z,3.69
2018-03-21T23:12:44.806Z,3.75
2018-03-21T23:15:12.380Z,3.77
2018-03-21T23:17:39.878Z,3.76
2018-03-21T23:20:07.719Z,3.78
2018-03-21T23:22:35.295Z,3.94
2018-03-21T23:25:02.896Z,3.90
2018-03-21T23:27:30.429Z,3.85
2018-03-21T23:29:57.990Z,3.92
2018-03-21T23:32:25.520Z,3.85
2018-03-21T23:34:53.030Z,3.74
2018-03-21T23:37:20.586Z,3.75
2018-03-21T23:39:48.080Z,3.83
2018-03-21T23:42:16.667Z,3.70
2018-03-21T23:44:44.435Z,3.76
2018-03-21T23:47:11.955Z,3.76
2018-03-21T23:49:39.472Z,3.85
2018-03-21T23:52:07.006Z,3.79
2018-03-21T23:54:34.590Z,3.81
2018-03-21T23:57:02.131Z,3.74
2018-03-21T23:59:29.686Z,3.89
